Time;durP1;ratioP1;P1;durP2;ratioP2;P2;SDS_P1;SDS_P2;PMS_P1;PMS_P2;Temp;Humidity;BMP_temperature;BMP_pressure;BME280_temperature;BME280_humidity;BME280_pressure;Samples;Min_cycle;Max_cycle;Signal;HPM_P1;HPM_P2
2022/07/11 00:00:10;;;;;;;;;;;21.50;73.90;21.60;99759.00;;;;342997;28;94174;-84
2022/07/11 00:00:23;;;;;;;;;;;21.50;73.90;21.60;99748.00;;;;344585;28;83510;-84
2022/07/11 00:00:35;;;;;;;;;;;21.50;73.90;21.60;99755.00;;;;345250;28;96604;-84
2022/07/11 00:00:48;;;;;;;;;;;21.50;74.40;21.60;99762.00;;;;344725;28;82558;-83
2022/07/11 00:00:59;;;;;;;;;;;21.50;74.20;21.60;99759.00;;;;345291;28;97598;-83
2022/07/11 00:01:11;;;;;;;;;;;21.50;74.30;21.60;99757.00;;;;346168;28;83323;-83
2022/07/11 00:01:23;;;;;;;;;;;21.50;74.20;21.60;99751.00;;;;345354;28;94278;-83
2022/07/11 00:01:35;;;;;;;;;;;21.50;74.00;21.60;99754.00;;;;343442;28;83526;-83
2022/07/11 00:01:47;;;;;;;;;;;21.50;74.00;21.60;99756.00;;;;346793;28;94341;-83
2022/07/11 00:02:01;;;;;;;;;;;21.50;74.20;21.60;99758.00;;;;345888;28;83283;-83
2022/07/11 00:02:13;;;;;;;;;;;21.50;74.10;21.60;99761.00;;;;344510;28;95682;-83
2022/07/11 00:02:25;;;;;;;;;;;21.50;74.00;21.60;99758.00;;;;346141;28;83722;-83
2022/07/11 00:02:38;;;;;;;;;;;21.50;74.10;21.50;99759.00;;;;343269;28;95488;-83
2022/07/11 00:02:50;;;;;;;;;;;21.50;74.20;21.50;99756.00;;;;346140;28;82488;-83
2022/07/11 00:03:02;;;;;;;;;;;21.50;74.20;21.50;99757.00;;;;344013;28;96491;-84
2022/07/11 00:03:14;;;;;;;;;;;21.50;74.30;21.50;99759.00;;;;343450;28;82378;-84
2022/07/11 00:03:26;;;;;;;;;;;21.50;74.40;21.50;99757.00;;;;342489;28;94236;-83
2022/07/11 00:03:37;;;;;;;;;;;21.50;74.30;21.60;99758.00;;;;343253;28;83584;-83
2022/07/11 00:03:50;;;;;;;;;;;21.50;74.30;21.60;99759.00;;;;342590;28;95987;-83
2022/07/11 00:04:01;;;;;;;;;;;21.50;74.30;21.60;99754.00;;;;344705;28;83332;-83
2022/07/11 00:04:13;;;;;;;;;;;21.50;74.20;21.60;99759.00;;;;342649;28;94437;-83
2022/07/11 00:04:25;;;;;;;;;;;21.50;74.20;21.50;99757.00;;;;344781;28;83375;-84
2022/07/11 00:04:37;;;;;;;;;;;21.50;74.10;21.50;99752.00;;;;345368;28;93996;-83
2022/07/11 00:04:49;;;;;;;;;;;21.50;74.10;21.60;99750.00;;;;344440;28;83534;-83
2022/07/11 00:05:04;;;;;;;;;;;21.50;74.20;21.60;99755.00;;;;342112;28;94432;-83
2022/07/11 00:05:16;;;;;;;;;;;21.50;74.30;21.60;99758.00;;;;343649;28;83462;-83
2022/07/11 00:05:28;;;;;;;;;;;21.50;74.20;21.60;99753.00;;;;343906;28;94547;-83
2022/07/11 00:05:39;;;;;;;;;;;21.50;74.50;21.60;99756.00;;;;347430;28;82629;-83
2022/07/11 00:05:51;;;;;;;;;;;21.50;74.20;21.70;99757.00;;;;345286;28;95952;-83
2022/07/11 00:06:03;;;;;;;;;;;21.50;74.20;21.60;99756.00;;;;345756;28;83499;-84
2022/07/11 00:06:15;;;;;;;;;;;21.50;74.40;21.60;99755.00;;;;345284;28;97007;-83
2022/07/11 00:06:26;;;;;;;;;;;21.50;74.50;21.60;99757.00;;;;344795;28;82517;-83
2022/07/11 00:06:38;;;;;;;;;;;21.50;74.40;21.60;99761.00;;;;342455;28;97831;-84
2022/07/11 00:06:50;;;;;;;;;;;21.50;74.50;21.60;99753.00;;;;343371;28;83301;-84
2022/07/11 00:07:02;;;;;;;;;;;21.50;74.70;21.60;99767.00;;;;343848;28;94281;-83
2022/07/11 00:07:14;;;;;;;;;;;21.50;74.50;21.50;99756.00;;;;343194;28;83493;-83
2022/07/11 00:07:26;;;;;;;;;;;21.50;74.20;21.60;99758.00;;;;341233;28;94263;-83
2022/07/11 00:07:38;;;;;;;;;;;21.50;74.20;21.60;99754.00;;;;343329;28;83506;-83
2022/07/11 00:07:49;;;;;;;;;;;21.50;74.40;21.60;99756.00;;;;343968;28;95392;-83
2022/07/11 00:08:01;;;;;;;;;;;21.50;74.20;21.60;99752.00;;;;344895;28;83394;-83
2022/07/11 00:08:13;;;;;;;;;;;21.50;74.20;21.60;99758.00;;;;344845;28;93889;-83
2022/07/11 00:08:25;;;;;;;;;;;21.50;74.40;21.50;99751.00;;;;344681;28;83419;-83
2022/07/11 00:08:37;;;;;;;;;;;21.50;74.20;21.40;99755.00;;;;343789;28;94706;-83
2022/07/11 00:08:49;;;;;;;;;;;21.50;74.20;21.40;99749.00;;;;344671;28;83412;-83
2022/07/11 00:09:01;;;;;;;;;;;21.50;74.20;21.30;99756.00;;;;343928;28;93909;-83
2022/07/11 00:09:13;;;;;;;;;;;21.40;74.30;21.40;99756.00;;;;344722;28;83402;-83
2022/07/11 00:09:24;;;;;;;;;;;21.40;74.30;21.40;99754.00;;;;343793;28;96894;-83
2022/07/11 00:09:36;;;;;;;;;;;21.40;74.40;21.40;99751.00;;;;346181;28;82419;-83
2022/07/11 00:09:48;;;;;;;;;;;21.40;74.50;21.40;99754.00;;;;345326;28;96839;-83
2022/07/11 00:10:00;;;;;;;;;;;21.40;74.50;21.50;99754.00;;;;344697;28;83228;-83
2022/07/11 00:10:11;;;;;;;;;;;21.40;74.80;21.50;99748.00;;;;342374;28;93707;-83
2022/07/11 00:10:23;;;;;;;;;;;21.40;74.80;21.50;99756.00;;;;343267;28;83536;-83
2022/07/11 00:10:35;;;;;;;;;;;21.40;74.80;21.50;99744.00;;;;343856;28;98210;-83
2022/07/11 00:10:47;;;;;;;;;;;21.40;74.50;21.50;99751.00;;;;344712;28;83361;-83
2022/07/11 00:10:59;;;;;;;;;;;21.40;74.70;21.50;99759.00;;;;342346;28;97903;-83
2022/07/11 00:11:11;;;;;;;;;;;21.40;74.80;21.50;99757.00;;;;345320;28;83603;-83
2022/07/11 00:11:23;;;;;;;;;;;21.40;74.70;21.50;99753.00;;;;343833;28;94283;-83
2022/07/11 00:11:35;;;;;;;;;;;21.40;74.60;21.50;99748.00;;;;345589;28;83428;-83
2022/07/11 00:11:47;;;;;;;;;;;21.40;74.60;21.40;99761.00;;;;344053;28;93098;-83
2022/07/11 00:12:00;;;;;;;;;;;21.40;74.80;21.50;99750.00;;;;344697;28;83464;-83
2022/07/11 00:12:12;;;;;;;;;;;21.40;74.70;21.50;99751.00;;;;345375;28;93929;-83
2022/07/11 00:12:26;;;;;;;;;;;21.40;74.70;21.50;99747.00;;;;345988;28;83580;-83
2022/07/11 00:12:38;;;;;;;;;;;21.40;74.60;21.50;99747.00;;;;345252;28;95518;-83
2022/07/11 00:12:50;;;;;;;;;;;21.40;74.60;21.60;99759.00;;;;344792;28;82446;-83
2022/07/11 00:13:02;;;;;;;;;;;21.40;74.60;21.50;99743.00;;;;343926;28;95958;-83
2022/07/11 00:13:13;;;;;;;;;;;21.40;74.60;21.50;99748.00;;;;344803;28;83425;-83
2022/07/11 00:13:25;;;;;;;;;;;21.40;74.70;21.50;99755.00;;;;342367;28;97399;-83
2022/07/11 00:13:37;;;;;;;;;;;21.40;74.80;21.60;99746.00;;;;342055;28;83407;-83
2022/07/11 00:13:50;;;;;;;;;;;21.40;74.60;21.60;99749.00;;;;345402;28;94130;-83
2022/07/11 00:14:02;;;;;;;;;;;21.40;74.60;21.60;99751.00;;;;345400;28;82448;-83
2022/07/11 00:14:17;;;;;;;;;;;21.40;74.70;21.50;99744.00;;;;343458;28;94221;-83
2022/07/11 00:14:29;;;;;;;;;;;21.40;74.80;21.50;99740.00;;;;346110;28;83385;-83
2022/07/11 00:14:40;;;;;;;;;;;21.40;74.70;21.60;99750.00;;;;342453;28;95601;-83
2022/07/11 00:14:53;;;;;;;;;;;21.40;74.60;21.50;99745.00;;;;344698;28;83360;-83
2022/07/11 00:15:06;;;;;;;;;;;21.40;74.60;21.50;99749.00;;;;344558;28;94401;-83
2022/07/11 00:15:17;;;;;;;;;;;21.40;74.50;21.50;99756.00;;;;347546;28;83414;-84
2022/07/11 00:15:29;;;;;;;;;;;21.40;74.50;21.50;99748.00;;;;342559;28;94687;-83
2022/07/11 00:15:41;;;;;;;;;;;21.40;74.50;21.60;99741.00;;;;345772;28;83499;-83
2022/07/11 00:15:53;;;;;;;;;;;21.40;74.60;21.60;99747.00;;;;343814;28;94538;-83
2022/07/11 00:16:05;;;;;;;;;;;21.50;74.90;21.50;99751.00;;;;344320;28;83346;-83
2022/07/11 00:16:23;;;;;;;;;;;21.40;75.10;21.40;99755.00;;;;342363;28;93733;-83
2022/07/11 00:16:35;;;;;;;;;;;21.40;74.80;21.30;99747.00;;;;343489;28;82393;-83
2022/07/11 00:16:48;;;;;;;;;;;21.40;74.80;21.30;99738.00;;;;343801;28;95525;-84
2022/07/11 00:16:59;;;;;;;;;;;21.40;74.90;21.30;99753.00;;;;343124;28;83376;-83
2022/07/11 00:17:11;;;;;;;;;;;21.40;74.80;21.40;99744.00;;;;344790;28;94114;-83
2022/07/11 00:17:23;;;;;;;;;;;21.40;74.80;21.40;99752.00;;;;343239;28;82501;-83
2022/07/11 00:17:35;;;;;;;;;;;21.40;74.80;21.50;99746.00;;;;344817;28;94206;-83
2022/07/11 00:17:47;;;;;;;;;;;21.40;74.80;21.50;99749.00;;;;346145;28;83465;-83
2022/07/11 00:17:58;;;;;;;;;;;21.40;74.80;21.50;99750.00;;;;345274;28;96487;-83
2022/07/11 00:18:10;;;;;;;;;;;21.40;74.80;21.50;99743.00;;;;344695;28;83493;-83
2022/07/11 00:18:23;;;;;;;;;;;21.40;75.00;21.50;99745.00;;;;343934;28;94568;-83
2022/07/11 00:18:35;;;;;;;;;;;21.40;74.90;21.50;99740.00;;;;344415;28;83966;-83
2022/07/11 00:18:47;;;;;;;;;;;21.40;75.10;21.50;99745.00;;;;343782;28;98515;-83
2022/07/11 00:18:59;;;;;;;;;;;21.40;75.00;21.50;99749.00;;;;344753;28;83349;-83
2022/07/11 00:19:11;;;;;;;;;;;21.40;75.10;21.50;99748.00;;;;344059;28;94487;-83
2022/07/11 00:19:23;;;;;;;;;;;21.40;75.20;21.50;99743.00;;;;344629;28;83286;-83
2022/07/11 00:19:36;;;;;;;;;;;21.40;75.00;21.50;99745.00;;;;342689;28;94244;-83
2022/07/11 00:19:48;;;;;;;;;;;21.40;75.10;21.50;99748.00;;;;343387;28;83458;-83
2022/07/11 00:20:00;;;;;;;;;;;21.40;75.10;21.50;99748.00;;;;342621;28;92998;-83
2022/07/11 00:20:11;;;;;;;;;;;21.40;75.00;21.50;99745.00;;;;342746;28;83475;-83
2022/07/11 00:20:23;;;;;;;;;;;21.40;75.10;21.50;99737.00;;;;342619;28;93161;-83
2022/07/11 00:20:35;;;;;;;;;;;21.40;75.20;21.50;99741.00;;;;344705;28;83402;-83
2022/07/11 00:20:47;;;;;;;;;;;21.40;75.20;21.50;99738.00;;;;343811;28;95259;-83
2022/07/11 00:20:59;;;;;;;;;;;21.40;75.10;21.50;99742.00;;;;343484;28;83274;-83
2022/07/11 00:21:11;;;;;;;;;;;21.40;75.20;21.50;99753.00;;;;346223;28;94060;-84
2022/07/11 00:21:22;;;;;;;;;;;21.40;75.20;21.50;99745.00;;;;344667;28;83293;-83
2022/07/11 00:21:35;;;;;;;;;;;21.40;75.10;21.50;99745.00;;;;343920;28;97340;-83
2022/07/11 00:21:48;;;;;;;;;;;21.40;75.60;21.50;99740.00;;;;344796;28;82482;-83
2022/07/11 00:22:00;;;;;;;;;;;21.40;74.80;21.50;99740.00;;;;343958;28;94590;-83
2022/07/11 00:22:11;;;;;;;;;;;21.40;74.90;21.50;99744.00;;;;344787;28;82387;-83
2022/07/11 00:22:23;;;;;;;;;;;21.40;74.80;21.50;99744.00;;;;343955;28;94478;-83
2022/07/11 00:22:35;;;;;;;;;;;21.40;74.90;21.50;99740.00;;;;344830;28;83312;-83
2022/07/11 00:22:47;;;;;;;;;;;21.40;74.90;21.60;99739.00;;;;342347;28;98544;-84
2022/07/11 00:22:58;;;;;;;;;;;21.40;74.90;21.40;99745.00;;;;344592;28;83307;-83
2022/07/11 00:23:10;;;;;;;;;;;21.40;74.80;21.40;99749.00;;;;345073;28;94923;-83
2022/07/11 00:23:22;;;;;;;;;;;21.40;74.90;21.40;99745.00;;;;344338;28;82560;-83
2022/07/11 00:23:34;;;;;;;;;;;21.40;75.10;21.50;99744.00;;;;343202;28;94965;-82
2022/07/11 00:23:46;;;;;;;;;;;21.40;75.10;21.40;99747.00;;;;343036;28;82526;-83
2022/07/11 00:23:58;;;;;;;;;;;21.40;75.10;21.40;99748.00;;;;341272;28;94730;-83
2022/07/11 00:24:09;;;;;;;;;;;21.40;75.00;21.40;99748.00;;;;344605;28;83528;-83
2022/07/11 00:24:21;;;;;;;;;;;21.40;75.00;21.40;99747.00;;;;344005;28;94452;-83
2022/07/11 00:24:33;;;;;;;;;;;21.40;75.20;21.50;99743.00;;;;344751;28;83545;-83
2022/07/11 00:24:45;;;;;;;;;;;21.40;75.20;21.40;99749.00;;;;343703;28;96799;-83
2022/07/11 00:24:57;;;;;;;;;;;21.40;75.20;21.40;99745.00;;;;344682;28;83442;-83
2022/07/11 00:25:08;;;;;;;;;;;21.40;75.10;21.40;99741.00;;;;345371;28;94168;-83
2022/07/11 00:25:20;;;;;;;;;;;21.40;75.20;21.30;99745.00;;;;343392;28;83305;-83
2022/07/11 00:25:32;;;;;;;;;;;21.40;75.30;21.30;99742.00;;;;342610;28;93150;-83
2022/07/11 00:25:44;;;;;;;;;;;21.30;75.30;21.30;99747.00;;;;343262;28;83496;-83
2022/07/11 00:25:56;;;;;;;;;;;21.30;75.30;21.30;99748.00;;;;344111;28;93825;-83
2022/07/11 00:26:07;;;;;;;;;;;21.30;75.20;21.40;99750.00;;;;345154;28;82663;-83
2022/07/11 00:26:19;;;;;;;;;;;21.30;75.30;21.40;99749.00;;;;343377;28;93992;-83
2022/07/11 00:26:31;;;;;;;;;;;21.30;75.20;21.30;99739.00;;;;344965;28;83461;-84
2022/07/11 00:26:43;;;;;;;;;;;21.30;75.30;21.30;99746.00;;;;345313;28;95392;-82
2022/07/11 00:26:55;;;;;;;;;;;21.30;75.30;21.30;99755.00;;;;346178;28;83333;-82
2022/07/11 00:27:06;;;;;;;;;;;21.30;75.70;21.20;99753.00;;;;343877;28;94512;-82
2022/07/11 00:27:18;;;;;;;;;;;21.30;75.60;21.20;99752.00;;;;343349;28;83424;-82
2022/07/11 00:27:30;;;;;;;;;;;21.30;75.50;21.10;99749.00;;;;342473;28;96957;-82
2022/07/11 00:27:41;;;;;;;;;;;21.30;75.50;21.20;99757.00;;;;343207;28;83388;-85
2022/07/11 00:28:01;;;;;;;;;;;21.30;75.60;21.30;99752.00;;;;342569;28;97395;-84
2022/07/11 00:28:13;;;;;;;;;;;21.20;75.60;21.20;99756.00;;;;343415;28;82458;-84
2022/07/11 00:28:25;;;;;;;;;;;21.20;75.80;21.30;99748.00;;;;344016;28;94261;-84
2022/07/11 00:28:37;;;;;;;;;;;21.20;75.70;21.20;99746.00;;;;346150;28;83420;-84
2022/07/11 00:28:48;;;;;;;;;;;21.20;75.90;21.20;99754.00;;;;342558;28;95229;-84
2022/07/11 00:29:00;;;;;;;;;;;21.20;75.80;21.20;99750.00;;;;344236;28;83490;-85
2022/07/11 00:29:12;;;;;;;;;;;21.20;76.10;21.30;99752.00;;;;343906;28;93775;-85
2022/07/11 00:29:24;;;;;;;;;;;21.20;75.90;21.30;99748.00;;;;345968;28;83525;-84
2022/07/11 00:29:36;;;;;;;;;;;21.20;75.80;21.30;99750.00;;;;343480;28;93910;-84
2022/07/11 00:29:48;;;;;;;;;;;21.20;75.90;21.30;99750.00;;;;344520;28;83458;-84
2022/07/11 00:29:59;;;;;;;;;;;21.20;76.00;21.30;99745.00;;;;342615;28;94582;-84
2022/07/11 00:30:12;;;;;;;;;;;21.20;75.90;21.30;99750.00;;;;344770;28;83405;-84
2022/07/11 00:30:24;;;;;;;;;;;21.20;75.80;21.30;99749.00;;;;343934;28;94138;-84
2022/07/11 00:30:35;;;;;;;;;;;21.20;75.70;21.30;99749.00;;;;344719;28;83446;-84
2022/07/11 00:30:47;;;;;;;;;;;21.20;75.70;21.30;99751.00;;;;343640;28;97833;-84
2022/07/11 00:30:59;;;;;;;;;;;21.20;75.70;21.30;99750.00;;;;343198;28;83418;-85
2022/07/11 00:31:11;;;;;;;;;;;21.20;75.80;21.30;99743.00;;;;342556;28;96569;-84
2022/07/11 00:31:23;;;;;;;;;;;21.20;75.90;21.30;99748.00;;;;343238;28;84291;-84
2022/07/11 00:31:35;;;;;;;;;;;21.20;76.00;21.30;99748.00;;;;343906;28;96433;-84
2022/07/11 00:31:47;;;;;;;;;;;21.20;76.00;21.30;99745.00;;;;343424;28;83327;-84
2022/07/11 00:31:59;;;;;;;;;;;21.20;76.00;21.20;99753.00;;;;342395;28;94479;-84
2022/07/11 00:32:10;;;;;;;;;;;21.20;76.00;21.30;99755.00;;;;343692;28;82693;-84
2022/07/11 00:32:22;;;;;;;;;;;21.20;76.00;21.30;99750.00;;;;343810;28;93466;-85
2022/07/11 00:32:34;;;;;;;;;;;21.20;76.20;21.30;99744.00;;;;346756;28;83512;-84
2022/07/11 00:32:47;;;;;;;;;;;21.20;76.20;21.30;99753.00;;;;345036;28;97941;-84
2022/07/11 00:32:59;;;;;;;;;;;21.20;76.00;21.30;99746.00;;;;344694;28;83359;-84
2022/07/11 00:33:11;;;;;;;;;;;21.20;76.00;21.30;99748.00;;;;343897;28;97247;-84
2022/07/11 00:33:22;;;;;;;;;;;21.20;76.10;21.30;99746.00;;;;341900;28;83440;-84
2022/07/11 00:33:34;;;;;;;;;;;21.20;76.20;21.30;99753.00;;;;341161;28;97612;-84
2022/07/11 00:33:46;;;;;;;;;;;21.20;76.00;21.30;99752.00;;;;343320;28;82944;-84
2022/07/11 00:33:58;;;;;;;;;;;21.20;76.00;21.30;99749.00;;;;343803;28;96138;-84
2022/07/11 00:34:10;;;;;;;;;;;21.20;75.90;21.30;99750.00;;;;344519;28;83341;-84
2022/07/11 00:34:21;;;;;;;;;;;21.20;75.80;21.30;99747.00;;;;343913;28;96326;-84
2022/07/11 00:34:33;;;;;;;;;;;21.20;75.90;21.30;99741.00;;;;343356;28;83407;-85
2022/07/11 00:34:45;;;;;;;;;;;21.20;75.90;21.30;99751.00;;;;342376;28;97460;-84
2022/07/11 00:34:57;;;;;;;;;;;21.20;76.00;21.30;99746.00;;;;343313;28;83650;-84
2022/07/11 00:35:09;;;;;;;;;;;21.20;76.20;21.30;99744.00;;;;344988;28;94200;-84
2022/07/11 00:35:20;;;;;;;;;;;21.20;76.40;21.20;99748.00;;;;345953;28;83414;-84
2022/07/11 00:35:32;;;;;;;;;;;21.20;76.40;21.20;99740.00;;;;343260;28;97269;-84
2022/07/11 00:35:44;;;;;;;;;;;21.20;76.50;21.20;99741.00;;;;343220;28;83408;-84
2022/07/11 00:35:56;;;;;;;;;;;21.20;76.20;21.30;99744.00;;;;342601;28;95579;-84
2022/07/11 00:36:08;;;;;;;;;;;21.20;76.30;21.30;99742.00;;;;342634;28;82503;-84
2022/07/11 00:36:19;;;;;;;;;;;21.20;76.20;21.30;99743.00;;;;342373;28;94180;-84
2022/07/11 00:36:31;;;;;;;;;;;21.20;76.30;21.20;99744.00;;;;343303;28;83614;-84
2022/07/11 00:36:44;;;;;;;;;;;21.20;76.30;21.30;99742.00;;;;341122;28;95178;-84
2022/07/11 00:36:55;;;;;;;;;;;21.20;76.30;21.20;99745.00;;;;344636;28;83496;-84
2022/07/11 00:37:07;;;;;;;;;;;21.20;76.10;21.30;99745.00;;;;343979;28;93971;-84
2022/07/11 00:37:19;;;;;;;;;;;21.20;76.20;21.20;99744.00;;;;342001;28;83388;-84
2022/07/11 00:37:31;;;;;;;;;;;21.20;76.40;21.20;99742.00;;;;342593;28;94125;-84
2022/07/11 00:37:43;;;;;;;;;;;21.20;76.30;21.30;99744.00;;;;344670;28;83489;-84
2022/07/11 00:37:54;;;;;;;;;;;21.20;76.30;21.20;99746.00;;;;343890;28;97653;-85
2022/07/11 00:38:06;;;;;;;;;;;21.20;76.40;21.30;99740.00;;;;342919;28;82663;-84
2022/07/11 00:38:18;;;;;;;;;;;21.20;76.30;21.20;99737.00;;;;343842;28;97283;-84
2022/07/11 00:38:29;;;;;;;;;;;21.20;76.40;21.20;99732.00;;;;344186;28;83566;-84
2022/07/11 00:38:41;;;;;;;;;;;21.20;76.40;21.20;99741.00;;;;342466;28;95149;-84
2022/07/11 00:38:53;;;;;;;;;;;21.20;76.40;21.30;99743.00;;;;343372;28;83366;-84
2022/07/11 00:39:05;;;;;;;;;;;21.20;76.50;21.30;99743.00;;;;343966;28;93102;-84
2022/07/11 00:39:19;;;;;;;;;;;21.20;76.50;21.20;99741.00;;;;344674;28;82817;-84
2022/07/11 00:39:31;;;;;;;;;;;21.20;76.40;21.20;99739.00;;;;345277;28;95504;-84
2022/07/11 00:39:43;;;;;;;;;;;21.20;76.40;21.20;99737.00;;;;344699;28;83463;-84
2022/07/11 00:39:55;;;;;;;;;;;21.20;76.40;21.20;99746.00;;;;342513;28;96081;-84
2022/07/11 00:40:08;;;;;;;;;;;21.20;76.40;21.20;99742.00;;;;343358;28;83507;-84
2022/07/11 00:40:20;;;;;;;;;;;21.20;76.60;21.20;99739.00;;;;344018;28;92815;-84
2022/07/11 00:40:32;;;;;;;;;;;21.20;76.50;21.20;99737.00;;;;347613;28;83309;-84
2022/07/11 00:40:43;;;;;;;;;;;21.20;76.60;21.20;99732.00;;;;346542;28;95496;-84
2022/07/11 00:40:55;;;;;;;;;;;21.20;76.60;21.10;99743.00;;;;347320;28;82925;-84
2022/07/11 00:41:07;;;;;;;;;;;21.20;76.50;21.10;99743.00;;;;343481;28;97641;-84
2022/07/11 00:41:19;;;;;;;;;;;21.10;76.40;21.10;99742.00;;;;343323;28;82484;-84
2022/07/11 00:41:30;;;;;;;;;;;21.10;76.80;21.20;99745.00;;;;342209;28;94533;-84
2022/07/11 00:41:42;;;;;;;;;;;21.20;76.90;21.20;99738.00;;;;343378;28;83401;-84
2022/07/11 00:41:54;;;;;;;;;;;21.10;76.70;21.20;99742.00;;;;345259;28;94551;-84
2022/07/11 00:42:06;;;;;;;;;;;21.10;76.70;21.20;99736.00;;;;344512;28;85600;-84
2022/07/11 00:42:18;;;;;;;;;;;21.10;76.70;21.20;99741.00;;;;344048;28;93213;-84
2022/07/11 00:42:30;;;;;;;;;;;21.20;76.70;21.20;99725.00;;;;344742;28;82540;-84
2022/07/11 00:42:41;;;;;;;;;;;21.10;76.50;21.20;99738.00;;;;342412;28;95496;-84
2022/07/11 00:42:53;;;;;;;;;;;21.10;76.60;21.20;99741.00;;;;343398;28;83298;-84
2022/07/11 00:43:05;;;;;;;;;;;21.10;76.50;21.10;99735.00;;;;343937;28;94569;-84
2022/07/11 00:43:19;;;;;;;;;;;21.10;76.60;21.10;99735.00;;;;343383;28;83300;-84
2022/07/11 00:43:36;;;;;;;;;;;21.10;76.70;21.10;99729.00;;;;341146;28;97383;-84
2022/07/11 00:44:05;;;;;;;;;;;21.10;76.70;21.10;99739.00;;;;343218;28;83422;-84
2022/07/11 00:44:17;;;;;;;;;;;21.10;76.80;21.10;99742.00;;;;343069;28;94305;-84
2022/07/11 00:44:29;;;;;;;;;;;21.10;76.80;21.10;99736.00;;;;344865;28;82506;-84
2022/07/11 00:44:40;;;;;;;;;;;21.10;76.80;21.10;99737.00;;;;344280;28;93005;-85
2022/07/11 00:44:52;;;;;;;;;;;21.10;76.80;21.00;99729.00;;;;343726;28;83453;-85
2022/07/11 00:45:04;;;;;;;;;;;21.10;76.90;21.10;99731.00;;;;343481;28;98302;-84
2022/07/11 00:45:16;;;;;;;;;;;21.10;77.00;21.10;99734.00;;;;347749;28;83433;-84
2022/07/11 00:45:28;;;;;;;;;;;21.10;77.00;21.10;99728.00;;;;344256;28;94276;-85
2022/07/11 00:45:40;;;;;;;;;;;21.10;76.90;21.10;99735.00;;;;346345;28;83335;-84
2022/07/11 00:45:51;;;;;;;;;;;21.10;76.90;21.00;99734.00;;;;343080;28;95645;-84
2022/07/11 00:46:04;;;;;;;;;;;21.10;77.00;21.00;99731.00;;;;346664;28;82484;-84
2022/07/11 00:46:16;;;;;;;;;;;21.10;76.90;21.10;99738.00;;;;344806;28;95010;-85
2022/07/11 00:46:28;;;;;;;;;;;21.10;76.80;21.10;99730.00;;;;343813;28;82498;-84
2022/07/11 00:46:40;;;;;;;;;;;21.10;77.00;21.10;99732.00;;;;347941;28;93806;-84
2022/07/11 00:46:53;;;;;;;;;;;21.10;77.10;21.10;99738.00;;;;346923;28;82510;-84
2022/07/11 00:47:06;;;;;;;;;;;21.10;77.20;21.10;99730.00;;;;345493;28;98064;-85
2022/07/11 00:47:18;;;;;;;;;;;21.10;77.50;21.00;99730.00;;;;347087;28;82505;-85
2022/07/11 00:47:30;;;;;;;;;;;21.10;77.40;21.00;99739.00;;;;346274;28;93239;-84
2022/07/11 00:47:42;;;;;;;;;;;21.00;77.20;21.00;99726.00;;;;345702;28;83343;-84
2022/07/11 00:47:55;;;;;;;;;;;21.00;77.00;21.00;99727.00;;;;344848;28;93393;-85
2022/07/11 00:48:07;;;;;;;;;;;21.10;77.00;21.10;99729.00;;;;346411;28;82566;-84
2022/07/11 00:48:19;;;;;;;;;;;21.00;77.00;21.00;99729.00;;;;344621;28;94464;-84
2022/07/11 00:48:30;;;;;;;;;;;21.10;77.20;21.10;99730.00;;;;345753;28;83446;-84
2022/07/11 00:48:42;;;;;;;;;;;21.00;77.20;21.10;99723.00;;;;343557;28;94223;-84
2022/07/11 00:48:54;;;;;;;;;;;21.00;77.30;21.00;99720.00;;;;342824;28;82438;-85
2022/07/11 00:49:06;;;;;;;;;;;21.10;77.50;21.00;99732.00;;;;344628;28;95631;-84
2022/07/11 00:49:19;;;;;;;;;;;21.00;77.50;21.10;99725.00;;;;344623;28;82329;-84
2022/07/11 00:49:31;;;;;;;;;;;21.00;77.50;21.10;99727.00;;;;344727;28;94651;-84
2022/07/11 00:49:42;;;;;;;;;;;21.00;77.40;21.10;99730.00;;;;348352;28;82548;-85
2022/07/11 00:49:54;;;;;;;;;;;21.10;77.40;21.10;99731.00;;;;347963;28;93436;-85
2022/07/11 00:50:07;;;;;;;;;;;21.10;77.30;21.10;99732.00;;;;349778;27;82630;-84
2022/07/11 00:50:19;;;;;;;;;;;21.00;77.20;21.10;99736.00;;;;345584;28;93435;-85
2022/07/11 00:50:31;;;;;;;;;;;21.00;77.30;21.10;99741.00;;;;344478;28;83465;-84
2022/07/11 00:50:43;;;;;;;;;;;21.00;77.30;21.20;99734.00;;;;343593;28;93228;-84
2022/07/11 00:50:55;;;;;;;;;;;21.00;77.20;21.10;99733.00;;;;344717;28;83486;-84
2022/07/11 00:51:07;;;;;;;;;;;21.00;77.20;21.10;99728.00;;;;341754;28;98580;-84
2022/07/11 00:51:22;;;;;;;;;;;21.00;77.10;21.10;99734.00;;;;345821;28;82633;-84
2022/07/11 00:51:34;;;;;;;;;;;21.10;77.10;21.10;99732.00;;;;342627;28;94393;-84
2022/07/11 00:51:46;;;;;;;;;;;21.00;77.40;21.10;99730.00;;;;341952;28;83513;-85
2022/07/11 00:51:58;;;;;;;;;;;21.00;77.40;21.10;99734.00;;;;344017;28;92989;-85
2022/07/11 00:52:10;;;;;;;;;;;21.00;77.40;21.10;99729.00;;;;344683;28;82550;-85
2022/07/11 00:52:22;;;;;;;;;;;21.00;77.40;21.10;99735.00;;;;343944;28;92953;-84
2022/07/11 00:52:34;;;;;;;;;;;21.00;77.30;21.10;99730.00;;;;344517;28;82514;-84
2022/07/11 00:52:46;;;;;;;;;;;21.00;78.10;21.10;99726.00;;;;343862;28;94725;-84
2022/07/11 00:52:58;;;;;;;;;;;21.00;77.70;21.00;99733.00;;;;344825;28;83308;-84
2022/07/11 00:53:09;;;;;;;;;;;21.00;77.60;21.10;99740.00;;;;344560;28;97068;-84
2022/07/11 00:53:21;;;;;;;;;;;21.00;77.40;21.00;99732.00;;;;343222;28;83439;-84
2022/07/11 00:53:34;;;;;;;;;;;21.00;77.40;21.00;99731.00;;;;343202;28;93093;-84
2022/07/11 00:53:48;;;;;;;;;;;21.00;77.40;21.00;99733.00;;;;343262;28;82643;-84
2022/07/11 00:54:00;;;;;;;;;;;21.00;77.40;21.00;99733.00;;;;345040;28;95442;-84
2022/07/11 00:54:12;;;;;;;;;;;21.00;77.40;21.00;99737.00;;;;343411;28;82548;-84
2022/07/11 00:54:24;;;;;;;;;;;21.00;77.40;21.10;99733.00;;;;343883;28;94670;-84
2022/07/11 00:54:36;;;;;;;;;;;21.00;77.50;21.10;99734.00;;;;346213;28;83231;-84
2022/07/11 00:54:47;;;;;;;;;;;21.00;77.50;21.10;99733.00;;;;342472;28;93105;-84
2022/07/11 00:54:59;;;;;;;;;;;21.00;77.40;21.10;99739.00;;;;344765;28;83338;-84
2022/07/11 00:55:11;;;;;;;;;;;21.00;77.30;21.10;99735.00;;;;343839;28;95182;-84
2022/07/11 00:55:23;;;;;;;;;;;21.00;77.40;21.10;99737.00;;;;346035;28;82508;-84
2022/07/11 00:55:34;;;;;;;;;;;21.00;77.40;21.10;99737.00;;;;345347;28;94086;-85
2022/07/11 00:55:47;;;;;;;;;;;21.00;77.60;21.10;99730.00;;;;344705;28;83305;-84
2022/07/11 00:55:59;;;;;;;;;;;21.00;77.60;21.10;99733.00;;;;344781;28;95672;-83
2022/07/11 00:56:10;;;;;;;;;;;21.00;77.60;21.10;99733.00;;;;345428;28;83608;-84
2022/07/11 00:56:25;;;;;;;;;;;21.00;77.50;21.10;99730.00;;;;345110;28;96259;-84
2022/07/11 00:56:37;;;;;;;;;;;21.00;77.50;21.10;99734.00;;;;344951;28;83524;-84
2022/07/11 00:56:48;;;;;;;;;;;21.00;77.60;21.00;99733.00;;;;343851;28;94210;-84
2022/07/11 00:57:00;;;;;;;;;;;21.00;77.50;21.00;99732.00;;;;347256;28;82795;-84
2022/07/11 00:57:13;;;;;;;;;;;21.00;77.60;20.90;99734.00;;;;343836;28;95588;-84
2022/07/11 00:57:24;;;;;;;;;;;21.00;77.60;21.00;99730.00;;;;344667;28;83456;-84
2022/07/11 00:57:36;;;;;;;;;;;21.00;77.50;21.00;99736.00;;;;343983;28;93975;-84
2022/07/11 00:57:49;;;;;;;;;;;21.00;77.60;21.00;99736.00;;;;343302;28;83405;-84
2022/07/11 00:58:01;;;;;;;;;;;21.00;77.90;21.00;99730.00;;;;343953;28;94563;-84
2022/07/11 00:58:13;;;;;;;;;;;21.00;77.70;21.10;99725.00;;;;345493;28;83546;-84
2022/07/11 00:58:24;;;;;;;;;;;21.00;77.70;21.00;99735.00;;;;343973;28;94411;-84
2022/07/11 00:58:36;;;;;;;;;;;21.00;77.90;21.00;99735.00;;;;344778;28;83390;-84
2022/07/11 00:58:48;;;;;;;;;;;21.00;78.00;21.10;99730.00;;;;343884;28;94498;-84
2022/07/11 00:59:00;;;;;;;;;;;21.00;78.10;21.10;99731.00;;;;345914;28;83475;-84
2022/07/11 00:59:12;;;;;;;;;;;21.00;78.10;21.10;99739.00;;;;341905;28;98301;-84
2022/07/11 00:59:23;;;;;;;;;;;21.00;77.90;21.10;99732.00;;;;341820;28;84007;-85
2022/07/11 00:59:35;;;;;;;;;;;21.00;77.80;21.00;99733.00;;;;343442;28;91928;-84
2022/07/11 00:59:47;;;;;;;;;;;21.00;77.80;21.10;99733.00;;;;343248;28;83420;-84
2022/07/11 00:59:59;;;;;;;;;;;21.00;77.70;21.10;99731.00;;;;343855;28;97516;-84